createdAt,value
2022-10-02T00:00:21.158Z,74.38
2022-10-02T00:01:21.319Z,74.27
2022-10-02T00:02:21.533Z,74.17
2022-10-02T00:03:21.685Z,74.07
2022-10-02T00:04:21.922Z,73.97
2022-10-02T00:05:22.075Z,73.87
2022-10-02T00:06:22.244Z,73.77
2022-10-02T00:07:22.422Z,73.77
2022-10-02T00:08:24.315Z,73.77
2022-10-02T00:09:22.745Z,73.87
2022-10-02T00:10:22.907Z,73.66
2022-10-02T00:11:23.064Z,73.87
2022-10-02T00:12:23.243Z,73.90
2022-10-02T00:13:23.411Z,73.80
2022-10-02T00:14:23.603Z,73.80
2022-10-02T00:15:23.763Z,73.80
2022-10-02T00:16:24.019Z,73.90
2022-10-02T00:17:24.135Z,74.01
2022-10-02T00:18:24.293Z,74.01
2022-10-02T00:19:24.454Z,74.10
2022-10-02T00:20:24.620Z,74.10
2022-10-02T00:21:24.781Z,74.21
2022-10-02T00:22:24.953Z,74.21
2022-10-02T00:23:25.114Z,74.24
2022-10-02T00:24:25.284Z,74.14
2022-10-02T00:25:25.443Z,74.14
2022-10-02T00:26:25.603Z,74.14
2022-10-02T00:27:25.773Z,74.14
2022-10-02T00:28:26.004Z,74.14
2022-10-02T00:29:26.101Z,74.44
2022-10-02T00:30:26.286Z,74.44
2022-10-02T00:31:26.504Z,74.34
2022-10-02T00:32:26.658Z,74.44
2022-10-02T00:33:26.804Z,74.44
2022-10-02T00:34:27.009Z,74.44
2022-10-02T00:35:27.165Z,74.55
2022-10-02T00:36:27.331Z,74.65
2022-10-02T00:37:27.503Z,74.75
2022-10-02T00:38:27.674Z,74.68
2022-10-02T00:39:27.832Z,74.79
2022-10-02T00:40:28.001Z,74.68
2022-10-02T00:41:28.153Z,74.79
2022-10-02T00:42:28.381Z,74.99
2022-10-02T00:43:28.533Z,75.09
2022-10-02T00:44:28.733Z,75.29
2022-10-02T00:45:28.951Z,75.40
2022-10-02T00:46:29.061Z,75.49
2022-10-02T00:47:29.236Z,75.40
2022-10-02T00:48:29.393Z,75.49
2022-10-02T00:49:29.564Z,75.49
2022-10-02T00:50:29.725Z,75.29
2022-10-02T00:51:29.882Z,75.19
2022-10-02T00:52:30.063Z,75.19
2022-10-02T00:53:30.226Z,75.19
2022-10-02T00:54:30.441Z,75.09
2022-10-02T00:55:30.562Z,75.29
2022-10-02T00:56:30.763Z,75.29
2022-10-02T00:57:30.934Z,75.40
2022-10-02T00:58:31.095Z,75.29
2022-10-02T00:59:31.253Z,75.49
2022-10-02T01:00:31.420Z,75.49
2022-10-02T01:01:31.592Z,75.40
2022-10-02T01:02:31.884Z,75.40
2022-10-02T01:03:31.953Z,75.43
2022-10-02T01:04:32.149Z,75.53
2022-10-02T01:05:32.302Z,75.33
2022-10-02T01:06:32.605Z,75.23
2022-10-02T01:07:32.710Z,75.23
2022-10-02T01:08:32.882Z,75.12
2022-10-02T01:09:33.053Z,75.23
2022-10-02T01:10:33.206Z,75.12
2022-10-02T01:11:33.356Z,75.12
2022-10-02T01:12:33.564Z,75.02
2022-10-02T01:13:33.753Z,75.02
2022-10-02T01:14:33.912Z,75.12
2022-10-02T01:15:34.072Z,75.12
2022-10-02T01:16:34.554Z,75.23
2022-10-02T01:17:34.445Z,75.02
2022-10-02T01:18:34.604Z,75.02
2022-10-02T01:19:34.773Z,75.23
2022-10-02T01:20:34.955Z,75.02
2022-10-02T01:21:35.122Z,75.02
2022-10-02T01:22:35.363Z,74.92
2022-10-02T01:23:35.443Z,75.02
2022-10-02T01:24:35.602Z,75.02
2022-10-02T01:25:35.762Z,75.12
2022-10-02T01:26:36.298Z,75.23
2022-10-02T01:27:39.134Z,75.33
2022-10-02T01:28:36.282Z,75.12
2022-10-02T01:29:36.444Z,75.12
2022-10-02T01:30:36.602Z,74.92
2022-10-02T01:31:36.858Z,75.02
2022-10-02T01:32:36.975Z,75.33
2022-10-02T01:33:37.112Z,75.12
2022-10-02T01:34:37.272Z,75.12
2022-10-02T01:35:37.432Z,74.92
2022-10-02T01:36:37.976Z,74.92
2022-10-02T01:37:37.803Z,74.96
2022-10-02T01:38:37.970Z,75.06
2022-10-02T01:39:38.132Z,75.06
2022-10-02T01:40:38.292Z,74.96
2022-10-02T01:41:38.482Z,74.85
2022-10-02T01:42:38.664Z,75.06
2022-10-02T01:43:38.828Z,75.16
2022-10-02T01:44:39.022Z,75.16
2022-10-02T01:45:39.196Z,75.26
2022-10-02T01:46:39.602Z,75.67
2022-10-02T01:47:39.560Z,75.46
2022-10-02T01:48:39.712Z,75.77
2022-10-02T01:49:39.874Z,75.67
2022-10-02T01:50:40.035Z,75.46
2022-10-02T01:51:40.232Z,75.67
2022-10-02T01:52:40.393Z,75.67
2022-10-02T01:53:40.552Z,75.87
2022-10-02T01:54:40.731Z,75.87
2022-10-02T01:55:40.891Z,75.81
2022-10-02T01:56:41.073Z,75.67
2022-10-02T01:57:41.231Z,75.70
2022-10-02T01:58:41.392Z,75.87
2022-10-02T01:59:41.552Z,75.60
2022-10-02T02:00:41.787Z,75.70
2022-10-02T02:01:41.952Z,75.50
2022-10-02T02:02:42.207Z,75.70
2022-10-02T02:03:42.281Z,75.81
2022-10-02T02:04:42.442Z,75.81
2022-10-02T02:05:42.642Z,75.81
2022-10-02T02:06:42.811Z,75.70
2022-10-02T02:07:42.976Z,75.70
2022-10-02T02:08:43.121Z,75.50
2022-10-02T02:09:43.320Z,75.70
2022-10-02T02:10:43.501Z,75.60
2022-10-02T02:11:43.660Z,75.50
2022-10-02T02:12:43.811Z,75.40
2022-10-02T02:13:43.973Z,76.01
2022-10-02T02:14:44.131Z,75.70
2022-10-02T02:15:44.311Z,75.50
2022-10-02T02:16:44.543Z,75.70
2022-10-02T02:17:44.663Z,75.50
2022-10-02T02:18:44.810Z,75.70
2022-10-02T02:19:45.011Z,75.70
2022-10-02T02:20:45.184Z,75.91
2022-10-02T02:21:45.343Z,76.01
2022-10-02T02:22:45.522Z,76.01
2022-10-02T02:23:45.699Z,76.21
2022-10-02T02:24:45.851Z,75.91
2022-10-02T02:25:46.080Z,76.01
2022-10-02T02:26:46.241Z,75.91
2022-10-02T02:27:46.499Z,75.91
2022-10-02T02:28:46.584Z,76.21
2022-10-02T02:29:46.792Z,76.42
2022-10-02T02:30:47.450Z,76.52
2022-10-02T02:31:47.171Z,76.38
2022-10-02T02:32:47.300Z,76.07
2022-10-02T02:33:47.470Z,76.28
2022-10-02T02:34:47.642Z,75.87
2022-10-02T02:35:47.801Z,75.98
2022-10-02T02:36:47.969Z,75.87
2022-10-02T02:37:48.131Z,75.87
2022-10-02T02:38:48.289Z,75.63
2022-10-02T02:39:48.451Z,75.63
2022-10-02T02:40:48.629Z,75.63
2022-10-02T02:41:48.790Z,75.53
2022-10-02T02:42:48.959Z,75.23
2022-10-02T02:43:49.160Z,75.12
2022-10-02T02:44:49.320Z,74.92
2022-10-02T02:45:49.549Z,74.82
2022-10-02T02:46:49.675Z,74.82
2022-10-02T02:47:49.851Z,74.72
2022-10-02T02:48:50.011Z,74.62
2022-10-02T02:49:50.170Z,74.72
2022-10-02T02:50:50.341Z,74.62
2022-10-02T02:51:50.520Z,74.62
2022-10-02T02:52:50.682Z,74.72
2022-10-02T02:53:50.840Z,74.62
2022-10-02T02:54:51.001Z,74.52
2022-10-02T02:55:51.180Z,74.52
2022-10-02T02:56:51.345Z,74.52
2022-10-02T02:57:51.500Z,74.41
2022-10-02T02:58:51.662Z,74.41
2022-10-02T02:59:51.851Z,74.41
2022-10-02T03:00:52.091Z,74.62
2022-10-02T03:01:52.205Z,74.52
2022-10-02T03:02:52.330Z,74.62
2022-10-02T03:03:52.500Z,74.72
2022-10-02T03:04:52.650Z,74.72
2022-10-02T03:05:52.862Z,74.82
2022-10-02T03:06:53.017Z,74.82
2022-10-02T03:07:53.209Z,74.92
2022-10-02T03:08:53.369Z,75.02
2022-10-02T03:09:53.570Z,75.23
2022-10-02T03:10:53.739Z,75.23
2022-10-02T03:11:53.900Z,75.23
2022-10-02T03:12:54.061Z,75.12
2022-10-02T03:13:54.219Z,75.02
2022-10-02T03:14:54.389Z,74.82
2022-10-02T03:15:54.625Z,74.82
2022-10-02T03:16:54.740Z,74.92
2022-10-02T03:17:54.920Z,74.92
2022-10-02T03:18:55.082Z,75.02
2022-10-02T03:19:55.239Z,74.92
2022-10-02T03:20:55.448Z,74.92
2022-10-02T03:21:55.588Z,74.82
2022-10-02T03:22:55.755Z,74.72
2022-10-02T03:23:55.950Z,74.82
2022-10-02T03:24:56.108Z,74.82
2022-10-02T03:25:56.340Z,74.82
2022-10-02T03:26:56.466Z,74.82
2022-10-02T03:27:56.638Z,74.92
2022-10-02T03:28:57.296Z,74.92
2022-10-02T03:29:56.954Z,75.02
2022-10-02T03:30:57.120Z,74.92
2022-10-02T03:31:57.297Z,74.92
2022-10-02T03:32:57.450Z,75.02
2022-10-02T03:33:57.674Z,75.02
2022-10-02T03:34:57.840Z,74.92
2022-10-02T03:35:58.018Z,74.92
2022-10-02T03:36:58.148Z,74.92
2022-10-02T03:37:58.309Z,74.92
2022-10-02T03:39:23.276Z,75.23
2022-10-02T03:39:59.673Z,75.12
2022-10-02T03:40:58.848Z,75.02
2022-10-02T03:41:59.015Z,75.09
2022-10-02T03:42:59.170Z,74.99
2022-10-02T03:43:59.348Z,74.88
2022-10-02T03:44:59.506Z,74.79
2022-10-02T03:45:59.751Z,74.79
2022-10-02T03:46:59.889Z,74.68
2022-10-02T03:48:00.095Z,74.68
2022-10-02T03:49:00.209Z,74.58
2022-10-02T03:50:00.408Z,74.48
2022-10-02T03:51:00.595Z,74.24
2022-10-02T03:52:00.770Z,74.34
2022-10-02T03:53:00.941Z,74.14
2022-10-02T03:54:01.101Z,74.14
2022-10-02T03:55:01.309Z,74.14
2022-10-02T03:56:01.450Z,74.04
2022-10-02T03:57:01.626Z,74.04
2022-10-02T03:58:01.770Z,73.94
2022-10-02T03:59:01.928Z,73.94
2022-10-02T04:00:02.131Z,73.83
2022-10-02T04:01:02.268Z,73.83
2022-10-02T04:02:02.486Z,73.83
2022-10-02T04:03:02.627Z,73.83
2022-10-02T04:04:02.800Z,73.83
2022-10-02T04:05:02.979Z,73.83
2022-10-02T04:06:03.138Z,73.94
2022-10-02T04:07:03.298Z,73.94
2022-10-02T04:08:03.457Z,73.83
2022-10-02T04:09:03.618Z,73.83
2022-10-02T04:10:03.798Z,73.83
2022-10-02T04:11:03.972Z,73.74
2022-10-02T04:12:04.136Z,73.74
2022-10-02T04:13:04.288Z,73.63
2022-10-02T04:14:04.487Z,73.60
2022-10-02T04:15:04.658Z,73.50
2022-10-02T04:16:04.854Z,73.50
2022-10-02T04:17:04.968Z,73.39
2022-10-02T04:18:05.166Z,73.39
2022-10-02T04:19:05.318Z,73.19
2022-10-02T04:20:05.551Z,73.09
2022-10-02T04:21:05.688Z,73.09
2022-10-02T04:22:05.891Z,73.09
2022-10-02T04:23:06.058Z,72.99
2022-10-02T04:24:06.216Z,72.96
2022-10-02T04:25:06.398Z,72.65
2022-10-02T04:26:06.558Z,72.55
2022-10-02T04:27:06.714Z,72.65
2022-10-02T04:28:06.980Z,72.45
2022-10-02T04:29:07.091Z,72.45
2022-10-02T04:30:07.268Z,72.45
2022-10-02T04:31:07.476Z,72.34
2022-10-02T04:32:07.617Z,72.25
2022-10-02T04:33:07.761Z,72.25
2022-10-02T04:34:07.939Z,72.25
2022-10-02T04:35:08.128Z,72.14
2022-10-02T04:36:08.286Z,71.91
2022-10-02T04:37:08.437Z,71.70
2022-10-02T04:38:08.638Z,71.60
2022-10-02T04:39:08.801Z,71.80
2022-10-02T04:40:08.978Z,71.50
2022-10-02T04:41:09.137Z,71.40
2022-10-02T04:42:09.307Z,71.30
2022-10-02T04:43:09.467Z,71.20
2022-10-02T04:44:09.671Z,71.40
2022-10-02T04:45:09.839Z,71.00
2022-10-02T04:46:10.010Z,71.09
2022-10-02T04:47:10.159Z,71.00
2022-10-02T04:48:10.342Z,71.09
2022-10-02T04:49:10.491Z,71.00
2022-10-02T04:50:10.699Z,71.09
2022-10-02T04:51:10.866Z,70.79
2022-10-02T04:52:11.029Z,70.79
2022-10-02T04:53:11.200Z,71.00
2022-10-02T04:54:11.378Z,71.09
2022-10-02T04:55:11.577Z,71.09
2022-10-02T04:56:11.729Z,71.06
2022-10-02T04:57:11.908Z,70.86
2022-10-02T04:58:12.089Z,70.96
2022-10-02T04:59:12.272Z,70.76
2022-10-02T05:00:12.458Z,70.65
2022-10-02T05:01:12.696Z,70.65
2022-10-02T05:02:12.860Z,70.96
2022-10-02T05:03:13.010Z,70.86
2022-10-02T05:04:13.187Z,70.86
2022-10-02T05:05:13.379Z,70.76
2022-10-02T05:06:13.548Z,70.86
2022-10-02T05:07:13.737Z,70.65
2022-10-02T05:08:13.928Z,70.65
2022-10-02T05:09:14.088Z,70.56
2022-10-02T05:10:14.297Z,70.65
2022-10-02T05:11:14.458Z,70.86
2022-10-02T05:12:14.618Z,70.86
2022-10-02T05:13:14.778Z,70.96
2022-10-02T05:14:14.967Z,70.76
2022-10-02T05:15:15.164Z,70.86
2022-10-02T05:16:15.330Z,70.96
2022-10-02T05:17:15.455Z,70.86
2022-10-02T05:18:18.038Z,71.06
2022-10-02T05:19:15.791Z,71.06
2022-10-02T05:20:16.004Z,71.16
2022-10-02T05:21:16.136Z,71.16
2022-10-02T05:22:16.296Z,71.06
2022-10-02T05:23:16.452Z,71.16
2022-10-02T05:24:16.640Z,71.16
2022-10-02T05:25:16.807Z,71.16
2022-10-02T05:26:16.989Z,71.16
2022-10-02T05:27:17.166Z,71.16
2022-10-02T05:28:17.391Z,71.37
2022-10-02T05:29:17.476Z,71.26
2022-10-02T05:30:17.675Z,71.26
2022-10-02T05:31:17.869Z,71.13
2022-10-02T05:32:18.012Z,71.23
2022-10-02T05:33:18.190Z,71.03
2022-10-02T05:34:18.368Z,71.03
2022-10-02T05:35:18.570Z,71.13
2022-10-02T05:36:18.709Z,70.93
2022-10-02T05:37:18.901Z,71.13
2022-10-02T05:38:19.087Z,71.23
2022-10-02T05:39:19.276Z,71.20
2022-10-02T05:40:19.458Z,71.20
2022-10-02T05:41:19.598Z,71.20
2022-10-02T05:42:19.791Z,71.20
2022-10-02T05:43:19.938Z,71.09
2022-10-02T05:44:20.127Z,71.09
2022-10-02T05:45:20.330Z,71.00
2022-10-02T05:46:20.556Z,71.20
2022-10-02T05:47:20.667Z,71.09
2022-10-02T05:48:20.848Z,71.09
2022-10-02T05:49:21.027Z,70.86
2022-10-02T05:50:21.227Z,71.06
2022-10-02T05:51:21.367Z,70.96
2022-10-02T05:52:21.546Z,70.86
2022-10-02T05:53:21.717Z,70.86
2022-10-02T05:54:21.912Z,70.86
2022-10-02T05:55:22.089Z,70.86
2022-10-02T05:56:22.268Z,70.96
2022-10-02T05:57:22.468Z,70.65
2022-10-02T05:58:22.649Z,70.76
2022-10-02T05:59:22.796Z,70.45
2022-10-02T06:00:22.988Z,70.56
2022-10-02T06:01:23.229Z,70.56
2022-10-02T06:02:23.349Z,70.32
2022-10-02T06:03:23.476Z,70.25
2022-10-02T06:04:23.677Z,70.05
2022-10-02T06:05:23.871Z,69.95
2022-10-02T06:06:24.041Z,70.05
2022-10-02T06:07:24.192Z,70.15
2022-10-02T06:08:24.377Z,70.05
2022-10-02T06:09:24.550Z,70.05
2022-10-02T06:10:24.747Z,70.12
2022-10-02T06:11:24.918Z,69.92
2022-10-02T06:12:25.097Z,69.92
2022-10-02T06:13:25.277Z,69.61
2022-10-02T06:14:25.467Z,69.51
2022-10-02T06:15:25.658Z,69.31
2022-10-02T06:16:25.859Z,69.31
2022-10-02T06:17:25.989Z,69.21
2022-10-02T06:18:26.167Z,69.27
2022-10-02T06:19:26.347Z,69.07
2022-10-02T06:20:26.574Z,69.07
2022-10-02T06:21:26.710Z,68.97
2022-10-02T06:22:26.889Z,68.87
2022-10-02T06:23:27.067Z,68.87
2022-10-02T06:24:27.248Z,68.97
2022-10-02T06:25:27.448Z,68.74
2022-10-02T06:26:27.627Z,68.74
2022-10-02T06:27:27.779Z,68.54
2022-10-02T06:28:28.031Z,68.43
2022-10-02T06:29:28.101Z,68.00
2022-10-02T06:30:28.310Z,68.10
2022-10-02T06:31:28.480Z,67.69
2022-10-02T06:32:28.628Z,68.00
2022-10-02T06:33:28.820Z,67.66
2022-10-02T06:34:29.000Z,67.56
2022-10-02T06:35:29.197Z,67.46
2022-10-02T06:36:29.366Z,67.26
2022-10-02T06:37:29.548Z,67.26
2022-10-02T06:38:29.754Z,66.96
2022-10-02T06:39:29.918Z,66.62
2022-10-02T06:40:30.081Z,66.62
2022-10-02T06:41:30.259Z,66.02
2022-10-02T06:42:30.408Z,66.32
2022-10-02T06:43:30.605Z,66.32
2022-10-02T06:44:30.808Z,66.22
2022-10-02T06:45:31.000Z,65.88
2022-10-02T06:46:31.106Z,65.48
2022-10-02T06:47:31.278Z,65.78
2022-10-02T06:48:31.476Z,65.88
2022-10-02T06:49:31.682Z,65.88
2022-10-02T06:50:31.813Z,65.88
2022-10-02T06:51:32.004Z,65.38
2022-10-02T06:52:37.169Z,65.08
2022-10-02T06:53:33.317Z,64.87
2022-10-02T06:54:32.499Z,65.08
2022-10-02T06:55:32.637Z,65.28
2022-10-02T06:56:32.842Z,65.48
2022-10-02T06:57:33.007Z,65.78
2022-10-02T06:58:33.195Z,65.48
2022-10-02T06:59:33.388Z,65.18
2022-10-02T07:00:33.595Z,65.48
2022-10-02T07:01:33.777Z,65.58
2022-10-02T07:02:33.972Z,65.28
2022-10-02T07:03:34.108Z,65.61
2022-10-02T07:04:34.318Z,65.71
2022-10-02T07:05:34.496Z,65.92
2022-10-02T07:06:35.010Z,66.02
2022-10-02T07:07:34.848Z,66.12
2022-10-02T07:08:35.028Z,66.22
2022-10-02T07:09:35.219Z,66.12
2022-10-02T07:10:35.377Z,66.12
2022-10-02T07:11:35.561Z,65.78
2022-10-02T07:12:35.738Z,65.35
2022-10-02T07:13:35.919Z,64.75
2022-10-02T07:14:36.110Z,64.21
2022-10-02T07:15:36.280Z,64.31
2022-10-02T07:16:36.690Z,64.41
2022-10-02T07:17:36.609Z,64.72
2022-10-02T07:18:36.807Z,64.31
2022-10-02T07:19:36.959Z,64.34
2022-10-02T07:20:37.150Z,64.34
2022-10-02T07:21:37.309Z,64.34
2022-10-02T07:22:44.969Z,64.61
2022-10-02T07:23:38.699Z,64.61
2022-10-02T07:24:37.852Z,64.21
2022-10-02T07:25:38.038Z,64.21
2022-10-02T07:26:38.580Z,63.81
2022-10-02T07:27:38.393Z,63.98
2022-10-02T07:28:38.549Z,63.37
2022-10-02T07:29:38.729Z,63.45
2022-10-02T07:30:38.869Z,63.24
2022-10-02T07:31:39.177Z,62.91
2022-10-02T07:32:39.255Z,62.30
2022-10-02T07:33:39.426Z,62.61
2022-10-02T07:34:39.578Z,62.71
2022-10-02T07:35:39.758Z,62.61
2022-10-02T07:36:39.974Z,62.41
2022-10-02T07:37:40.119Z,62.21
2022-10-02T07:38:40.319Z,62.21
2022-10-02T07:39:40.498Z,62.41
2022-10-02T07:40:40.679Z,62.30
2022-10-02T07:41:40.843Z,62.41
2022-10-02T07:42:41.028Z,62.61
2022-10-02T07:43:41.209Z,62.61
2022-10-02T07:44:41.351Z,62.41
2022-10-02T07:45:41.521Z,62.61
2022-10-02T07:46:41.671Z,62.51
2022-10-02T07:47:41.859Z,62.41
2022-10-02T07:48:42.049Z,62.48
2022-10-02T07:49:42.209Z,62.27
2022-10-02T07:50:42.380Z,61.54
2022-10-02T07:51:42.567Z,61.24
2022-10-02T07:52:42.788Z,61.14
2022-10-02T07:53:42.959Z,61.24
2022-10-02T07:54:43.131Z,60.71
2022-10-02T07:55:43.290Z,60.88
2022-10-02T07:56:43.472Z,60.38
2022-10-02T07:57:43.629Z,59.55
2022-10-02T07:58:43.781Z,59.01
2022-10-02T07:59:43.981Z,58.13
2022-10-02T08:00:44.121Z,56.70
2022-10-02T08:01:44.347Z,56.50
2022-10-02T08:02:44.481Z,55.87
2022-10-02T08:03:44.651Z,55.57
2022-10-02T08:04:44.810Z,54.85
2022-10-02T08:05:44.982Z,54.42
2022-10-02T08:06:45.140Z,53.30
2022-10-02T08:07:45.340Z,52.74
2022-10-02T08:08:45.501Z,51.70
2022-10-02T08:09:45.688Z,50.97
2022-10-02T08:10:45.854Z,50.00
2022-10-02T08:11:49.356Z,48.61
2022-10-02T08:12:46.211Z,47.00
2022-10-02T08:13:46.386Z,45.86
2022-10-02T08:14:46.546Z,45.25
2022-10-02T08:15:46.733Z,45.34
2022-10-02T08:16:46.947Z,44.85
2022-10-02T08:17:47.129Z,45.47
2022-10-02T08:18:47.243Z,45.37
2022-10-02T08:19:47.443Z,45.96
2022-10-02T08:20:47.603Z,44.63
2022-10-02T08:21:47.792Z,43.20
2022-10-02T08:22:47.994Z,42.46
2022-10-02T08:23:48.143Z,42.43
2022-10-02T08:24:48.322Z,41.00
2022-10-02T08:25:48.508Z,40.27
2022-10-02T08:26:48.674Z,39.78
2022-10-02T08:27:48.962Z,39.78
2022-10-02T08:28:49.052Z,40.94
2022-10-02T08:29:49.234Z,39.97
2022-10-02T08:30:49.422Z,40.64
2022-10-02T08:31:49.665Z,39.25
2022-10-02T08:32:49.766Z,38.77
2022-10-02T08:33:49.914Z,39.26
2022-10-02T08:34:50.084Z,38.45
2022-10-02T08:35:50.275Z,38.73
2022-10-02T08:36:50.444Z,38.67
2022-10-02T08:37:50.683Z,39.89
2022-10-02T08:38:54.616Z,40.84
2022-10-02T08:39:51.029Z,41.77
2022-10-02T08:40:51.175Z,42.60
2022-10-02T08:41:51.347Z,43.62
2022-10-02T08:42:51.554Z,43.93
2022-10-02T08:43:51.677Z,44.85
2022-10-02T08:44:51.847Z,44.67
2022-10-02T08:45:52.114Z,45.51
2022-10-02T08:46:52.227Z,46.60
2022-10-02T08:47:52.367Z,45.93
2022-10-02T08:48:52.544Z,45.83
2022-10-02T08:49:52.737Z,46.03
2022-10-02T08:50:52.908Z,46.11
2022-10-02T08:51:53.139Z,46.20
2022-10-02T08:52:53.278Z,45.51
2022-10-02T08:53:53.440Z,45.53
2022-10-02T08:54:53.608Z,46.55
2022-10-02T08:55:53.840Z,46.87
2022-10-02T08:56:53.988Z,48.08
2022-10-02T08:57:54.110Z,47.69
2022-10-02T08:58:54.279Z,48.21
2022-10-02T08:59:54.442Z,48.41
2022-10-02T09:00:54.668Z,49.01
2022-10-02T09:01:59.497Z,48.73
2022-10-02T09:02:55.989Z,48.43
2022-10-02T09:03:55.148Z,48.83
2022-10-02T09:04:55.339Z,48.93
2022-10-02T09:05:55.449Z,48.93
2022-10-02T09:06:55.690Z,48.50
2022-10-02T09:07:55.829Z,48.08
2022-10-02T09:08:56.008Z,47.69
2022-10-02T09:09:56.204Z,48.08
2022-10-02T09:10:56.339Z,47.69
2022-10-02T09:11:56.550Z,48.19
2022-10-02T09:12:56.691Z,47.99
2022-10-02T09:13:56.874Z,47.69
2022-10-02T09:14:59.053Z,47.99
2022-10-02T09:15:57.250Z,47.20
2022-10-02T09:16:57.431Z,44.65
2022-10-02T09:17:57.561Z,44.45
2022-10-02T09:18:57.764Z,44.25
2022-10-02T09:19:57.921Z,43.74
2022-10-02T09:20:58.091Z,42.66
2022-10-02T09:21:58.335Z,40.31
2022-10-02T09:22:58.471Z,39.48
2022-10-02T09:23:58.641Z,38.85
2022-10-02T09:24:58.795Z,37.71
2022-10-02T09:25:58.982Z,36.47
2022-10-02T09:26:59.180Z,35.44
2022-10-02T09:27:59.501Z,34.72
2022-10-02T09:28:59.544Z,34.52
2022-10-02T09:29:59.685Z,34.64
2022-10-02T09:30:59.883Z,34.78
2022-10-02T09:32:00.069Z,36.22
2022-10-02T09:33:00.175Z,36.51
2022-10-02T09:34:00.404Z,35.90
2022-10-02T09:35:00.544Z,36.38
2022-10-02T09:36:00.714Z,36.05
2022-10-02T09:37:00.934Z,35.05
2022-10-02T09:38:01.065Z,35.83
2022-10-02T09:39:01.205Z,34.87
2022-10-02T09:40:01.405Z,35.30
2022-10-02T09:41:01.605Z,36.30
2022-10-02T09:42:01.805Z,37.10
2022-10-02T09:43:01.906Z,37.41
2022-10-02T09:44:02.134Z,36.82
2022-10-02T09:45:02.289Z,36.94
2022-10-02T09:46:02.586Z,36.98
2022-10-02T09:47:02.657Z,37.78
2022-10-02T09:48:02.796Z,37.80
2022-10-02T09:49:03.001Z,38.51
2022-10-02T09:50:03.187Z,39.22
2022-10-02T09:51:03.327Z,39.62
2022-10-02T09:52:03.469Z,40.21
2022-10-02T09:53:03.641Z,40.13
2022-10-02T09:54:03.808Z,40.64
2022-10-02T09:55:03.960Z,41.16
2022-10-02T09:56:04.188Z,41.47
2022-10-02T09:57:04.328Z,42.19
2022-10-02T09:58:04.509Z,42.90
2022-10-02T09:59:04.688Z,43.74
2022-10-02T10:00:04.878Z,43.76
2022-10-02T10:01:05.092Z,45.49
2022-10-02T10:02:05.304Z,46.50
2022-10-02T10:03:05.420Z,47.32
2022-10-02T10:04:05.627Z,48.56
2022-10-02T10:05:06.751Z,49.48
2022-10-02T10:06:05.939Z,50.60
2022-10-02T10:07:06.090Z,50.74
2022-10-02T10:08:06.333Z,51.97
2022-10-02T10:09:06.429Z,52.29
2022-10-02T10:10:06.613Z,52.99
2022-10-02T10:11:06.791Z,54.32
2022-10-02T10:12:06.982Z,55.04
2022-10-02T10:13:07.171Z,55.97
2022-10-02T10:14:07.341Z,56.77
2022-10-02T10:15:09.132Z,56.70
2022-10-02T10:16:07.771Z,57.52
2022-10-02T10:17:07.881Z,58.25
2022-10-02T10:18:08.082Z,59.18
2022-10-02T10:19:08.252Z,59.48
2022-10-02T10:20:08.433Z,60.01
2022-10-02T10:21:08.603Z,60.33
2022-10-02T10:22:08.761Z,61.04
2022-10-02T10:23:08.946Z,61.47
2022-10-02T10:24:09.122Z,62.07
2022-10-02T10:25:09.315Z,61.97
2022-10-02T10:26:09.493Z,62.37
2022-10-02T10:27:09.662Z,62.97
2022-10-02T10:28:09.874Z,62.54
2022-10-02T10:29:10.013Z,62.74
2022-10-02T10:30:10.191Z,62.44
2022-10-02T10:31:10.434Z,62.54
2022-10-02T10:32:10.570Z,62.44
2022-10-02T10:33:10.703Z,62.64
2022-10-02T10:34:10.902Z,62.44
2022-10-02T10:35:11.102Z,62.44
2022-10-02T10:36:11.260Z,62.44
2022-10-02T10:37:11.432Z,62.34
2022-10-02T10:38:11.563Z,62.24
2022-10-02T10:39:11.805Z,62.14
2022-10-02T10:40:11.957Z,62.84
2022-10-02T10:41:12.142Z,63.04
2022-10-02T10:42:12.333Z,63.01
2022-10-02T10:43:16.601Z,62.92
2022-10-02T10:44:12.645Z,62.98
2022-10-02T10:45:12.805Z,62.68
2022-10-02T10:46:13.014Z,62.45
2022-10-02T10:47:14.134Z,62.15
2022-10-02T10:48:13.343Z,61.85
2022-10-02T10:49:13.531Z,61.25
2022-10-02T10:50:13.714Z,62.08
2022-10-02T10:51:13.923Z,62.38
2022-10-02T10:52:14.084Z,61.78
2022-10-02T10:53:14.235Z,61.48
2022-10-02T10:54:14.414Z,61.68
2022-10-02T10:55:14.582Z,61.85
2022-10-02T10:56:14.760Z,61.15
2022-10-02T10:57:14.934Z,61.35
2022-10-02T10:58:15.116Z,61.05
2022-10-02T10:59:15.294Z,61.35
2022-10-02T11:00:15.474Z,61.15
2022-10-02T11:01:15.689Z,61.18
2022-10-02T11:02:15.858Z,61.58
2022-10-02T11:03:16.014Z,61.08
2022-10-02T11:04:16.161Z,61.28
2022-10-02T11:05:16.345Z,61.68
2022-10-02T11:06:16.554Z,62.08
2022-10-02T11:07:16.704Z,61.68
2022-10-02T11:08:16.855Z,60.81
2022-10-02T11:09:17.044Z,61.41
2022-10-02T11:10:17.207Z,61.71
2022-10-02T11:11:17.394Z,60.88
2022-10-02T11:12:17.587Z,61.01
2022-10-02T11:13:17.766Z,61.01
2022-10-02T11:14:17.953Z,61.61
2022-10-02T11:15:18.127Z,61.51
2022-10-02T11:16:18.391Z,61.71
2022-10-02T11:17:18.484Z,61.91
2022-10-02T11:18:18.685Z,61.04
2022-10-02T11:19:21.529Z,61.64
2022-10-02T11:20:18.976Z,62.04
2022-10-02T11:21:19.177Z,61.94
2022-10-02T11:22:19.316Z,62.74
2022-10-02T11:23:19.496Z,61.94
2022-10-02T11:24:19.680Z,62.57
2022-10-02T11:25:19.857Z,62.67
2022-10-02T11:26:20.036Z,62.67
2022-10-02T11:27:20.207Z,62.37
2022-10-02T11:28:20.408Z,61.87
2022-10-02T11:29:20.555Z,62.04
2022-10-02T11:30:20.776Z,61.84
2022-10-02T11:31:21.001Z,62.11
2022-10-02T11:32:21.088Z,62.51
2022-10-02T11:33:21.267Z,62.28
2022-10-02T11:34:21.447Z,61.68
2022-10-02T11:35:21.616Z,61.08
2022-10-02T11:36:21.848Z,61.35
2022-10-02T11:37:21.987Z,61.75
2022-10-02T11:38:22.167Z,61.35
2022-10-02T11:39:22.357Z,61.25
2022-10-02T11:40:22.528Z,61.45
2022-10-02T11:41:22.743Z,61.45
2022-10-02T11:42:22.881Z,61.05
2022-10-02T11:43:23.069Z,60.52
2022-10-02T11:44:23.248Z,60.72
2022-10-02T11:45:23.429Z,60.72
2022-10-02T11:46:23.627Z,60.52
2022-10-02T11:47:23.780Z,60.42
2022-10-02T11:48:23.965Z,60.82
2022-10-02T11:49:24.138Z,59.75
2022-10-02T11:50:24.318Z,60.05
2022-10-02T11:51:24.519Z,58.55
2022-10-02T11:52:24.689Z,59.45
2022-10-02T11:53:24.869Z,59.95
2022-10-02T11:54:25.059Z,59.55
2022-10-02T11:55:25.305Z,59.48
2022-10-02T11:56:25.470Z,59.58
2022-10-02T11:57:25.612Z,60.28
2022-10-02T11:58:25.789Z,60.01
2022-10-02T11:59:25.959Z,59.31
2022-10-02T12:00:26.100Z,58.83
2022-10-02T12:01:26.279Z,59.64
2022-10-02T12:02:26.547Z,59.74
2022-10-02T12:03:26.657Z,60.36
2022-10-02T12:04:26.785Z,60.16
2022-10-02T12:05:26.960Z,60.77
2022-10-02T12:06:27.181Z,60.47
2022-10-02T12:07:27.341Z,60.77
2022-10-02T12:08:27.490Z,61.19
2022-10-02T12:09:27.647Z,60.89
2022-10-02T12:10:27.810Z,61.70
2022-10-02T12:11:28.000Z,62.70
2022-10-02T12:12:28.174Z,62.00
2022-10-02T12:13:28.351Z,61.90
2022-10-02T12:14:28.558Z,61.19
2022-10-02T12:15:28.702Z,60.80
2022-10-02T12:16:28.902Z,60.80
2022-10-02T12:17:29.072Z,60.10
2022-10-02T12:18:29.250Z,59.99
2022-10-02T12:19:29.386Z,60.10
2022-10-02T12:20:29.550Z,60.10
2022-10-02T12:21:29.821Z,60.69
2022-10-02T12:22:29.880Z,60.60
2022-10-02T12:23:30.061Z,60.89
2022-10-02T12:24:30.279Z,58.99
2022-10-02T12:25:30.481Z,59.79
2022-10-02T12:26:30.620Z,59.99
2022-10-02T12:27:30.811Z,60.39
2022-10-02T12:28:31.052Z,59.79
2022-10-02T12:29:31.152Z,59.79
2022-10-02T12:30:31.356Z,60.89
2022-10-02T12:31:31.514Z,60.16
2022-10-02T12:32:31.658Z,57.96
2022-10-02T12:33:31.853Z,57.96
2022-10-02T12:34:32.042Z,58.46
2022-10-02T12:35:32.186Z,58.03
2022-10-02T12:36:32.412Z,58.73
2022-10-02T12:37:32.516Z,59.00
2022-10-02T12:38:32.683Z,58.70
2022-10-02T12:39:32.847Z,57.40
2022-10-02T12:40:33.014Z,57.90
2022-10-02T12:41:33.218Z,57.68
2022-10-02T12:42:33.351Z,58.07
2022-10-02T12:43:33.505Z,57.68
2022-10-02T12:44:33.706Z,57.68
2022-10-02T12:45:33.949Z,56.35
2022-10-02T12:46:34.091Z,55.87
2022-10-02T12:47:34.234Z,57.68
2022-10-02T12:48:34.408Z,56.37
2022-10-02T12:49:34.556Z,56.07
2022-10-02T12:50:34.723Z,56.48
2022-10-02T12:51:35.317Z,56.17
2022-10-02T12:52:35.052Z,56.48
2022-10-02T12:53:35.194Z,56.57
2022-10-02T12:54:35.334Z,55.98